Date,TemperatureHighF,TemperatureAvgF,TemperatureLowF,DewpointHighF,DewpointAvgF,DewpointLowF,HumidityHigh,HumidityAvg,HumidityLow,PressureMaxIn,PressureMinIn,WindSpeedMaxMPH,WindSpeedAvgMPH,GustSpeedMaxMPH,PrecipitationSumIn
2014-1-1,42,30,20,29,23,16,89,76,58,30.48,30.22,16,2,16,0.02
2014-1-2,32,28,23,28,25,21,94,88,80,30.22,29.74,10,2,10,0.00
2014-1-3,24,14,2,22,5,-2,91,66,45,30.58,29.76,28,8,28,0.00
2014-1-4,27,11,-1,14,5,-4,89,77,53,30.61,30.35,20,2,20,0.04
2014-1-5,31,20,6,30,17,3,95,90,78,30.37,29.76,6,0,6,0.00
2014-1-6,44,29,4,41,20,-10,96,71,45,30.17,29.56,32,12,32,0.25
2014-1-7,11,7,0,-3,-6,-12,57,53,47,30.55,30.16,25,10,25,0.00
2014-1-8,24,17,7,14,5,-4,69,57,44,30.68,30.54,14,1,14,0.00
2014-1-9,34,26,21,24,19,13,88,73,60,30.74,30.58,8,0,8,0.09
2014-1-10,35,31,27,32,28,24,94,91,86,30.63,30.22,4,0,4,0.26
2014-1-11,50,39,32,47,37,31,97,94,69,30.22,29.45,21,2,21,0.41
2014-1-12,47,40,28,38,31,25,91,71,61,30.17,29.62,26,5,26,0.10
2014-1-13,50,36,23,40,31,22,94,84,65,30.18,29.91,12,1,12,0.14
2014-1-14,48,47,47,41,40,40,78,76,76,29.91,29.88,12,7,12,0.08
2014-1-16,22,22,21,20,19,19,91,91,90,30.04,30.02,0,0,0,0.00
2014-1-17,45,31,21,32,26,19,93,81,57,30.03,29.90,9,0,9,0.00
2014-1-18,33,25,18,30,16,9,92,69,55,30.07,29.89,25,6,25,0.01
2014-1-19,41,29,19,28,20,11,79,68,55,30.03,29.78,28,4,28,0.01
2014-1-20,41,34,26,30,26,22,85,72,60,29.96,29.73,18,2,18,0.00
2014-1-21,35,22,9,28,19,3,93,86,71,30.02,29.88,23,9,23,0.00
2014-1-22,14,7,-2,3,-2,-7,80,67,52,30.19,30.01,17,4,17,0.00
2014-1-23,21,10,-4,12,1,-8,88,68,55,30.52,30.18,15,4,15,0.00
2014-1-24,19,11,4,4,-1,-5,73,59,46,30.61,30.12,18,4,18,0.00
2014-1-25,31,22,15,22,10,2,85,60,53,30.12,29.53,34,9,34,0.00
2014-1-26,26,21,14,16,9,2,78,59,50,30.00,29.75,24,2,24,0.00
2014-1-27,18,18,17,13,13,11,81,80,79,29.79,29.78,0,0,0,0.00
2014-1-28,13,11,9,5,-2,-5,82,55,45,30.48,30.37,4,0,4,0.00
2014-1-29,21,13,6,6,-1,-9,87,56,40,30.44,30.30,15,2,15,0.00
2014-1-30,30,14,-3,10,3,-7,89,62,40,30.57,30.25,10,0,10,0.00
2014-1-31,42,29,18,26,19,10,85,67,45,30.31,30.19,4,0,4,0.00